Terminal Aerodrome Forecast
Issued by NWS

Home | Current Version | Previous Version | Graphics & Text | Print | Product List | Glossary On
Versions: 1 2 3 4 5 6 7 8 9 10 11 12 13 14
000
FTUS43 KFGF 192300
TAFBJI
TAF
KBJI 192331Z 2000/2024 31014G22KT 1SM -SN BKN015 OVC040
      TEMPO 2000/2002 3SM -SN
     FM200200 29010KT P6SM -SN BKN015
     FM201200 29007KT P6SM BKN050=

USA.gov is the U.S. government's official web portal to all federal, state and local government web resources and services.